createdAt,value
2017-10-13T05:06:39.377Z,2
2017-10-13T05:12:09.766Z,5
2017-10-13T05:15:39.975Z,8
2017-10-13T05:18:10.121Z,10
2017-10-13T05:19:40.240Z,13
2017-10-13T05:21:10.307Z,15
2017-10-13T05:22:40.433Z,17
2017-10-13T05:23:40.455Z,20
2017-10-13T05:24:10.571Z,22
2017-10-13T05:25:10.646Z,25
2017-10-13T05:25:40.627Z,30
2017-10-13T05:26:10.671Z,32
2017-10-13T05:26:40.677Z,35
2017-10-13T05:27:10.711Z,37
2017-10-13T05:27:40.769Z,40
2017-10-13T05:28:10.821Z,45
2017-10-13T05:28:40.829Z,47
2017-10-13T05:29:10.840Z,52
2017-10-13T05:29:40.923Z,55
2017-10-13T05:30:10.867Z,58
2017-10-13T05:30:40.907Z,62
2017-10-13T05:31:11.093Z,67
2017-10-13T05:31:40.972Z,70
2017-10-13T05:32:11.071Z,73
2017-10-13T05:32:41.087Z,75
2017-10-13T05:34:41.215Z,77
2017-10-13T05:35:11.232Z,80
2017-10-13T05:35:41.276Z,83
2017-10-13T05:36:11.352Z,88
2017-10-13T05:36:41.359Z,92
2017-10-13T05:37:11.367Z,95
2017-10-13T05:37:41.361Z,100
2017-10-13T05:38:11.426Z,105
2017-10-13T05:38:41.469Z,112
2017-10-13T05:39:11.493Z,118
2017-10-13T05:39:41.519Z,120
2017-10-13T05:40:41.521Z,122
2017-10-13T05:41:11.609Z,125
2017-10-13T05:41:41.587Z,128
2017-10-13T05:42:11.626Z,135
2017-10-13T05:42:41.723Z,140
2017-10-13T05:43:11.680Z,148
2017-10-13T05:43:41.730Z,152
2017-10-13T05:44:11.774Z,160
2017-10-13T05:44:41.763Z,163
2017-10-13T05:45:11.794Z,167
2017-10-13T05:45:41.856Z,175
2017-10-13T05:46:11.878Z,182
2017-10-13T05:46:41.891Z,190
2017-10-13T05:47:11.949Z,200
2017-10-13T05:47:41.953Z,212
2017-10-13T05:48:11.980Z,223
2017-10-13T05:48:42.016Z,238
2017-10-13T05:49:12.041Z,250
2017-10-13T05:49:42.079Z,262
2017-10-13T05:50:12.143Z,280
2017-10-13T05:50:42.135Z,295
2017-10-13T05:51:12.211Z,308
2017-10-13T05:51:42.204Z,320
2017-10-13T05:52:12.243Z,335
2017-10-13T05:52:42.306Z,350
2017-10-13T05:53:12.288Z,365
2017-10-13T05:53:42.357Z,377
2017-10-13T05:54:12.395Z,383
2017-10-13T05:54:42.395Z,388
2017-10-13T05:55:12.428Z,400
2017-10-13T05:55:42.449Z,418
2017-10-13T05:56:12.490Z,445
2017-10-13T05:56:42.521Z,473
2017-10-13T05:57:12.544Z,490
2017-10-13T05:57:42.633Z,512
2017-10-13T05:58:12.647Z,540
2017-10-13T05:58:42.664Z,562
2017-10-13T05:59:12.661Z,583
2017-10-13T05:59:42.697Z,595
2017-10-13T06:00:12.719Z,600
2017-10-13T06:00:42.783Z,613
2017-10-13T06:01:12.792Z,625
2017-10-13T06:01:42.881Z,640
2017-10-13T06:02:12.884Z,660
2017-10-13T06:02:42.916Z,680
2017-10-13T06:03:12.904Z,695
2017-10-13T06:03:42.942Z,710
2017-10-13T06:04:12.965Z,733
2017-10-13T06:04:43.065Z,763
2017-10-13T06:05:13.073Z,790
2017-10-13T06:05:43.083Z,815
2017-10-13T06:06:13.098Z,840
2017-10-13T06:06:43.206Z,857
2017-10-13T06:07:13.148Z,877
2017-10-13T06:07:43.196Z,887
2017-10-13T06:08:13.309Z,900
2017-10-13T06:08:43.281Z,920
2017-10-13T06:09:13.316Z,960
2017-10-13T06:09:43.326Z,1007
2017-10-13T06:10:13.398Z,1067
2017-10-13T06:10:43.389Z,1123
2017-10-13T06:11:13.444Z,1172
2017-10-13T06:11:43.447Z,1198
2017-10-13T06:12:13.523Z,1207
2017-10-13T06:12:43.583Z,1210
2017-10-13T06:13:13.563Z,1223
2017-10-13T06:13:43.582Z,1230
2017-10-13T06:14:13.655Z,1240
2017-10-13T06:14:43.650Z,1255
2017-10-13T06:15:13.677Z,1282
2017-10-13T06:15:43.706Z,1315
2017-10-13T06:16:13.776Z,1330
2017-10-13T06:16:43.803Z,1360
2017-10-13T06:17:13.828Z,1423
2017-10-13T06:17:43.838Z,1510
2017-10-13T06:18:13.876Z,1585
2017-10-13T06:18:43.902Z,1620
2017-10-13T06:19:13.962Z,1633
2017-10-13T06:19:43.983Z,1620
2017-10-13T06:20:14.005Z,1610
2017-10-13T06:20:44.037Z,1630
2017-10-13T06:21:14.054Z,1673
2017-10-13T06:21:44.101Z,1717
2017-10-13T06:22:14.205Z,1775
2017-10-13T06:22:44.128Z,1805
2017-10-13T06:23:14.222Z,1825
2017-10-13T06:24:14.266Z,1808
2017-10-13T06:24:44.292Z,1800
2017-10-13T06:25:14.354Z,1808
2017-10-13T06:25:44.341Z,1875
2017-10-13T06:26:14.392Z,1978
2017-10-13T06:26:44.411Z,2113
2017-10-13T06:27:14.392Z,2230
2017-10-13T06:27:44.479Z,2308
2017-10-13T06:28:14.534Z,2312
2017-10-13T06:28:44.485Z,2267
2017-10-13T06:29:14.506Z,2197
2017-10-13T06:29:44.563Z,2165
2017-10-13T06:30:14.575Z,2147
2017-10-13T06:30:44.688Z,2145
2017-10-13T06:31:14.650Z,2170
2017-10-13T06:31:44.676Z,2233
2017-10-13T06:32:14.769Z,2267
2017-10-13T06:32:44.738Z,2260
2017-10-13T06:33:14.761Z,2265
2017-10-13T06:33:44.822Z,2293
2017-10-13T06:34:14.843Z,2297
2017-10-13T06:34:44.853Z,2267
2017-10-13T06:35:14.930Z,2237
2017-10-13T06:35:44.941Z,2248
2017-10-13T06:36:14.970Z,2282
2017-10-13T06:36:45.001Z,2233
2017-10-13T06:37:15.052Z,2098
2017-10-13T06:37:45.066Z,1963
2017-10-13T06:38:15.112Z,1895
2017-10-13T06:38:45.142Z,1910
2017-10-13T06:39:15.166Z,1935
2017-10-13T06:39:45.195Z,1955
2017-10-13T06:40:15.220Z,2030
2017-10-13T06:40:45.286Z,2102
2017-10-13T06:41:15.367Z,2137
2017-10-13T06:41:45.336Z,2192
2017-10-13T06:42:15.365Z,2258
2017-10-13T06:42:45.436Z,2310
2017-10-13T06:43:15.458Z,2380
2017-10-13T06:43:45.497Z,2452
2017-10-13T06:44:15.531Z,2488
2017-10-13T06:44:45.533Z,2480
2017-10-13T06:45:15.578Z,2398
2017-10-13T06:45:45.610Z,2248
2017-10-13T06:46:15.588Z,2150
2017-10-13T06:46:45.701Z,2080
2017-10-13T06:47:15.674Z,2035
2017-10-13T06:47:45.701Z,2050
2017-10-13T06:48:15.766Z,2123
2017-10-13T06:48:45.746Z,2233
2017-10-13T06:49:15.785Z,2285
2017-10-13T06:49:45.830Z,2312
2017-10-13T06:50:15.854Z,2325
2017-10-13T06:50:45.876Z,2318
2017-10-13T06:51:15.941Z,2310
2017-10-13T06:51:45.932Z,2347
2017-10-13T06:52:15.991Z,2495
2017-10-13T06:52:45.990Z,2662
2017-10-13T06:53:16.024Z,2743
2017-10-13T06:53:46.066Z,2833
2017-10-13T06:54:16.100Z,2858
2017-10-13T06:54:46.145Z,2880
2017-10-13T06:55:16.154Z,2953
2017-10-13T06:55:46.243Z,3005
2017-10-13T06:56:16.248Z,3107
2017-10-13T06:56:46.273Z,3332
2017-10-13T06:57:16.276Z,3550
2017-10-13T06:57:46.369Z,3585
2017-10-13T06:58:16.332Z,3412
2017-10-13T06:58:46.425Z,3422
2017-10-13T06:59:16.447Z,3025
2017-10-13T06:59:46.418Z,2890
2017-10-13T07:00:16.502Z,2885
2017-10-13T07:00:46.536Z,2830
2017-10-13T07:01:16.552Z,2762
2017-10-13T07:01:46.553Z,2782
2017-10-13T07:02:16.638Z,2820
2017-10-13T07:02:46.647Z,2773
2017-10-13T07:03:16.702Z,2762
2017-10-13T07:03:46.707Z,2710
2017-10-13T07:04:16.757Z,2717
2017-10-13T07:04:46.790Z,2807
2017-10-13T07:05:16.820Z,2960
2017-10-13T07:05:46.844Z,3008
2017-10-13T07:06:16.836Z,3052
2017-10-13T07:06:46.926Z,3060
2017-10-13T07:07:16.886Z,3055
2017-10-13T07:07:46.987Z,3120
2017-10-13T07:08:17.023Z,3178
2017-10-13T07:08:47.028Z,3503
2017-10-13T07:09:17.058Z,3358
2017-10-13T07:09:47.109Z,3412
2017-10-13T07:10:17.125Z,3620
2017-10-13T07:10:47.177Z,4487
2017-10-13T07:11:17.236Z,3725
2017-10-13T07:11:47.236Z,3880
2017-10-13T07:12:17.285Z,4370
2017-10-13T07:12:47.294Z,4588
2017-10-13T07:13:17.356Z,4975
2017-10-13T07:13:47.357Z,5363
2017-10-13T07:14:17.383Z,5990
2017-10-13T07:14:47.375Z,5998
2017-10-13T07:15:17.459Z,6148
2017-10-13T07:15:47.465Z,6673
2017-10-13T07:16:17.533Z,7658
2017-10-13T07:16:47.506Z,7685
2017-10-13T07:17:17.541Z,6865
2017-10-13T07:17:47.558Z,7145
2017-10-13T07:18:17.653Z,6120
2017-10-13T07:18:47.624Z,5790
2017-10-13T07:19:17.724Z,6652
2017-10-13T07:19:47.731Z,7665
2017-10-13T07:20:17.755Z,7575
2017-10-13T07:20:47.767Z,7303
2017-10-13T07:21:17.799Z,7095
2017-10-13T07:21:47.814Z,9580
2017-10-13T07:22:17.848Z,11865
2017-10-13T07:22:47.917Z,11323
2017-10-13T07:23:17.902Z,8575
2017-10-13T07:23:47.994Z,10275
2017-10-13T07:24:17.961Z,9715
2017-10-13T07:24:48.011Z,11580
2017-10-13T07:25:18.095Z,10370
2017-10-13T07:25:48.049Z,7835
2017-10-13T07:26:18.083Z,6823
2017-10-13T07:26:48.107Z,7610
2017-10-13T07:27:18.151Z,7273
2017-10-13T07:27:48.186Z,7832
2017-10-13T07:28:18.229Z,9712
2017-10-13T07:28:48.317Z,9375
2017-10-13T07:29:18.332Z,11185
2017-10-13T07:29:48.324Z,8938
2017-10-13T07:30:18.383Z,9358
2017-10-13T07:30:48.378Z,8605
2017-10-13T07:31:18.425Z,8180
2017-10-13T07:31:48.487Z,8207
2017-10-13T07:32:18.497Z,8075
2017-10-13T07:32:48.582Z,8160
2017-10-13T07:33:18.568Z,8150
2017-10-13T07:33:48.598Z,8160
2017-10-13T07:34:18.601Z,8245
2017-10-13T07:34:48.672Z,8267
2017-10-13T07:35:18.675Z,8143
2017-10-13T07:35:48.667Z,8000
2017-10-13T07:36:18.696Z,7845
2017-10-13T07:36:48.744Z,7817
2017-10-13T07:37:18.773Z,7807
2017-10-13T07:37:48.787Z,7790
2017-10-13T07:38:18.852Z,7845
2017-10-13T07:38:48.860Z,7950
2017-10-13T07:39:18.877Z,8295
2017-10-13T07:39:48.911Z,8243
2017-10-13T07:40:18.941Z,8218
2017-10-13T07:40:49.031Z,8647
2017-10-13T07:41:19.023Z,8980
2017-10-13T07:41:49.049Z,8620
2017-10-13T07:42:19.070Z,8743
2017-10-13T07:42:49.098Z,9215
2017-10-13T07:43:19.128Z,12188
2017-10-13T07:43:49.174Z,13907
2017-10-13T07:44:19.208Z,10013
2017-10-13T07:44:49.221Z,12665
2017-10-13T07:45:19.314Z,10185
2017-10-13T07:45:49.328Z,13225
2017-10-13T07:46:19.312Z,13020
2017-10-13T07:46:49.406Z,10823
2017-10-13T07:47:19.411Z,10955
2017-10-13T07:47:49.453Z,12317
2017-10-13T07:48:19.454Z,10427
2017-10-13T07:48:49.510Z,10200
2017-10-13T07:49:19.541Z,10510
2017-10-13T07:49:49.558Z,10270
2017-10-13T07:50:19.627Z,10547
2017-10-13T07:50:49.637Z,13790
2017-10-13T07:51:19.671Z,14203
2017-10-13T07:51:49.716Z,14910
2017-10-13T07:52:19.737Z,18180
2017-10-13T07:52:49.743Z,18058
2017-10-13T07:53:19.786Z,15542
2017-10-13T07:53:49.848Z,17765
2017-10-13T07:54:19.895Z,16990
2017-10-13T07:54:49.840Z,19745
2017-10-13T07:55:19.933Z,19185
2017-10-13T07:55:49.939Z,18278
2017-10-13T07:56:19.986Z,14747
2017-10-13T07:56:50.003Z,15598
2017-10-13T07:57:20.040Z,16033
2017-10-13T07:57:50.054Z,13273
2017-10-13T07:58:20.148Z,18360
2017-10-13T07:58:50.169Z,17762
2017-10-13T07:59:20.140Z,19528
2017-10-13T07:59:50.162Z,14432
2017-10-13T08:00:20.205Z,12995
2017-10-13T08:00:50.256Z,13508
2017-10-13T08:01:20.338Z,13245
2017-10-13T08:01:50.322Z,14362
2017-10-13T08:02:20.329Z,16052
2017-10-13T08:02:50.411Z,13345
2017-10-13T08:03:20.372Z,16390
2017-10-13T08:03:50.433Z,13435
2017-10-13T08:04:20.438Z,13510
2017-10-13T08:04:50.493Z,14195
2017-10-13T08:05:20.529Z,14878
2017-10-13T08:05:50.602Z,13730
2017-10-13T08:06:20.570Z,16517
2017-10-13T08:06:50.639Z,17557
2017-10-13T08:07:20.623Z,17450
2017-10-13T08:07:50.682Z,13315
2017-10-13T08:08:20.690Z,12825
2017-10-13T08:08:50.737Z,12257
2017-10-13T08:09:20.757Z,12082
2017-10-13T08:09:50.782Z,12060
2017-10-13T08:10:20.821Z,12095
2017-10-13T08:10:50.847Z,12317
2017-10-13T08:11:20.881Z,12460
2017-10-13T08:11:50.913Z,12375
2017-10-13T08:12:20.961Z,12278
2017-10-13T08:12:50.986Z,12360
2017-10-13T08:13:21.033Z,12313
2017-10-13T08:13:51.095Z,12305
2017-10-13T08:14:21.123Z,12560
2017-10-13T08:14:51.115Z,12133
2017-10-13T08:15:21.149Z,12077
2017-10-13T08:15:51.271Z,12220
2017-10-13T08:16:21.336Z,12370
2017-10-13T08:16:51.233Z,11882
2017-10-13T08:17:21.356Z,11730
2017-10-13T08:17:51.344Z,11785
2017-10-13T08:18:21.376Z,11878
2017-10-13T08:18:51.424Z,12000
2017-10-13T08:19:21.441Z,12100
2017-10-13T08:19:51.477Z,12190
2017-10-13T08:20:21.496Z,12335
2017-10-13T08:20:51.540Z,12547
2017-10-13T08:21:21.553Z,12780
2017-10-13T08:21:51.570Z,12947
2017-10-13T08:22:21.586Z,13192
2017-10-13T08:22:51.614Z,13468
2017-10-13T08:23:21.712Z,13635
2017-10-13T08:23:51.695Z,13697
2017-10-13T08:24:21.732Z,13708
2017-10-13T08:24:51.764Z,15025
2017-10-13T08:25:21.805Z,13380
2017-10-13T08:25:51.813Z,13138
2017-10-13T08:26:21.885Z,13210
2017-10-13T08:26:51.876Z,13487
2017-10-13T08:27:21.919Z,13210
2017-10-13T08:27:51.935Z,13427
2017-10-13T08:28:21.969Z,14077
2017-10-13T08:28:52.064Z,14333
2017-10-13T08:29:22.054Z,18733
2017-10-13T08:29:52.058Z,13993
2017-10-13T08:30:22.089Z,13390
2017-10-13T08:30:52.132Z,13487
2017-10-13T08:31:22.150Z,14063
2017-10-13T08:31:52.205Z,15415
2017-10-13T08:32:22.262Z,20192
2017-10-13T08:32:52.255Z,17597
2017-10-13T08:33:22.307Z,15782
2017-10-13T08:33:52.351Z,15523
2017-10-13T08:34:22.345Z,13775
2017-10-13T08:34:52.408Z,13570
2017-10-13T08:35:22.473Z,13492
2017-10-13T08:35:52.461Z,13657
2017-10-13T08:36:22.540Z,13205
2017-10-13T08:36:52.500Z,13157
2017-10-13T08:37:22.559Z,12810
2017-10-13T08:37:52.599Z,12620
2017-10-13T08:38:22.630Z,12553
2017-10-13T08:38:52.701Z,12598
2017-10-13T08:39:22.729Z,12480
2017-10-13T08:39:52.732Z,12373
2017-10-13T08:40:22.764Z,12415
2017-10-13T08:40:52.820Z,12590
2017-10-13T08:41:22.780Z,12870
2017-10-13T08:41:52.865Z,13320
2017-10-13T08:42:22.910Z,13930
2017-10-13T08:42:52.963Z,24100
2017-10-13T08:43:22.975Z,23732
2017-10-13T08:43:52.965Z,23023
2017-10-13T08:44:23.003Z,22412
2017-10-13T08:44:53.062Z,21545
2017-10-13T08:45:23.090Z,25375
2017-10-13T08:45:53.117Z,20353
2017-10-13T08:46:23.143Z,16675
2017-10-13T08:46:53.205Z,16115
2017-10-13T08:47:23.223Z,15673
2017-10-13T08:47:53.228Z,15233
2017-10-13T08:48:23.270Z,15142
2017-10-13T08:48:53.292Z,15965
2017-10-13T08:49:23.337Z,16375
2017-10-13T08:49:53.384Z,16798
2017-10-13T08:50:23.333Z,16942
2017-10-13T08:50:53.424Z,21178
2017-10-13T08:51:23.474Z,22815
2017-10-13T08:51:53.481Z,17235
2017-10-13T08:52:23.477Z,19155
2017-10-13T08:52:53.552Z,18298
2017-10-13T08:53:23.575Z,15625
2017-10-13T08:53:53.570Z,16183
2017-10-13T08:54:23.585Z,15613
2017-10-13T08:54:53.661Z,17453
2017-10-13T08:55:23.710Z,18358
2017-10-13T08:55:53.721Z,16265
2017-10-13T08:56:23.721Z,15763
2017-10-13T08:56:53.750Z,16620
2017-10-13T08:57:23.789Z,17050
2017-10-13T08:57:53.821Z,18737
2017-10-13T08:58:23.834Z,18148
2017-10-13T08:58:53.872Z,19573
2017-10-13T08:59:23.902Z,23818
2017-10-13T08:59:53.948Z,19305
2017-10-13T09:00:24.035Z,20355
2017-10-13T09:00:54.027Z,23072
2017-10-13T09:01:24.106Z,24165
2017-10-13T09:01:54.067Z,19168
2017-10-13T09:02:24.098Z,20132
2017-10-13T09:02:54.129Z,19328
2017-10-13T09:03:24.178Z,19880
2017-10-13T09:03:54.223Z,22768
2017-10-13T09:04:24.223Z,23873
2017-10-13T09:04:54.277Z,27070
2017-10-13T09:05:24.392Z,29738
2017-10-13T09:05:54.327Z,23180
2017-10-13T09:06:24.424Z,26360
2017-10-13T09:06:54.413Z,25222
2017-10-13T09:07:24.481Z,28898
2017-10-13T09:07:54.472Z,30598
2017-10-13T09:08:24.570Z,32212
2017-10-13T09:08:54.556Z,28363
2017-10-13T09:09:24.578Z,28850
2017-10-13T09:09:54.593Z,29100
2017-10-13T09:10:24.645Z,27707
2017-10-13T09:10:54.655Z,26975
2017-10-13T09:11:24.650Z,27682
2017-10-13T09:11:54.685Z,24070
2017-10-13T09:14:29.219Z,15623
2017-10-13T09:14:54.907Z,15580
2017-10-13T09:15:24.945Z,15495
2017-10-13T09:15:54.972Z,14878
2017-10-13T09:16:24.995Z,13680
2017-10-13T09:16:55.035Z,12643
2017-10-13T09:17:25.062Z,12245
2017-10-13T09:17:55.148Z,12197
2017-10-13T09:18:25.115Z,12910
2017-10-13T09:18:55.169Z,14257
2017-10-13T09:19:25.152Z,15793
2017-10-13T09:19:55.208Z,17072
2017-10-13T09:20:25.288Z,17623
2017-10-13T09:20:55.250Z,17663
2017-10-13T09:21:25.281Z,17775
2017-10-13T09:21:55.355Z,16217
2017-10-13T09:22:25.408Z,15943
2017-10-13T09:22:55.414Z,15950
2017-10-13T09:23:25.491Z,16210
2017-10-13T09:23:55.470Z,15660
2017-10-13T09:24:25.485Z,16275
2017-10-13T09:24:55.554Z,16183
2017-10-13T09:25:25.578Z,16425
2017-10-13T09:25:55.655Z,17023
2017-10-13T09:26:25.597Z,15415
2017-10-13T09:26:55.627Z,15718
2017-10-13T09:27:25.717Z,16078
2017-10-13T09:27:55.728Z,15570
2017-10-13T09:28:25.762Z,17565
2017-10-13T09:28:55.806Z,18553
2017-10-13T09:29:25.827Z,21307
2017-10-13T09:29:55.837Z,19528
2017-10-13T09:30:25.898Z,20575
2017-10-13T09:30:55.939Z,21983
2017-10-13T09:31:25.987Z,20245
2017-10-13T09:31:55.991Z,20040
2017-10-13T09:32:26.026Z,20167
2017-10-13T09:32:56.034Z,20015
2017-10-13T09:33:26.031Z,19417
2017-10-13T09:33:56.110Z,18247
2017-10-13T09:34:26.101Z,17282
2017-10-13T09:34:56.158Z,16965
2017-10-13T09:35:26.171Z,17640
2017-10-13T09:35:56.204Z,16283
2017-10-13T09:36:26.224Z,17915
2017-10-13T09:36:56.302Z,17750
2017-10-13T09:37:26.303Z,17950
2017-10-13T09:37:56.381Z,17020
2017-10-13T09:38:26.529Z,18928
2017-10-13T09:38:56.411Z,18335
2017-10-13T09:39:26.478Z,19388
2017-10-13T09:39:56.508Z,19498
2017-10-13T09:40:26.541Z,18752
2017-10-13T09:40:56.566Z,19250
2017-10-13T09:41:26.549Z,18332
2017-10-13T09:41:56.601Z,18080
2017-10-13T09:42:26.657Z,21373
2017-10-13T09:42:56.926Z,16408
2017-10-13T09:43:26.669Z,19685
2017-10-13T09:43:56.718Z,15772
2017-10-13T09:44:26.732Z,16840
2017-10-13T09:44:56.754Z,19950
2017-10-13T09:45:26.791Z,15002
2017-10-13T09:45:56.815Z,14525
2017-10-13T09:46:26.861Z,14665
2017-10-13T09:46:56.910Z,15602
2017-10-13T09:47:26.941Z,15435
2017-10-13T09:47:56.992Z,14633
2017-10-13T09:48:26.971Z,14260
2017-10-13T09:48:57.001Z,14792
2017-10-13T09:49:27.035Z,14168
2017-10-13T09:49:57.084Z,15007
2017-10-13T09:50:27.103Z,23475
2017-10-13T09:50:57.122Z,16975
2017-10-13T09:51:27.172Z,26827
2017-10-13T09:51:57.181Z,29920
2017-10-13T09:52:27.227Z,23723
2017-10-13T09:52:57.334Z,23445
2017-10-13T09:53:27.271Z,26308
2017-10-13T09:53:57.333Z,25333
2017-10-13T09:54:27.378Z,22135
2017-10-13T09:54:57.368Z,27133
2017-10-13T09:55:27.466Z,23970
2017-10-13T09:55:57.464Z,21763
2017-10-13T09:56:27.495Z,21193
2017-10-13T09:56:57.531Z,25598
2017-10-13T09:57:27.543Z,24548
2017-10-13T09:57:58.132Z,22510
2017-10-13T09:58:27.607Z,21268
2017-10-13T09:58:57.683Z,21120
2017-10-13T09:59:27.739Z,20527
2017-10-13T09:59:57.707Z,26002
2017-10-13T10:00:27.733Z,21520
2017-10-13T10:00:57.760Z,28487
2017-10-13T10:01:27.826Z,21040
2017-10-13T10:01:57.829Z,20955
2017-10-13T10:02:27.857Z,25522
2017-10-13T10:02:57.944Z,26953
2017-10-13T10:03:27.915Z,25733
2017-10-13T10:03:57.939Z,28423
2017-10-13T10:04:27.980Z,32160
2017-10-13T10:04:58.018Z,33470
2017-10-13T10:05:28.040Z,33838
2017-10-13T10:05:58.069Z,30275
2017-10-13T10:06:28.111Z,19543
2017-10-13T10:06:58.145Z,15883
2017-10-13T10:07:28.170Z,19103
2017-10-13T10:07:58.317Z,17590
2017-10-13T10:08:28.240Z,15242
2017-10-13T10:08:58.261Z,14312
2017-10-13T10:09:28.355Z,13597
2017-10-13T10:09:58.395Z,13837
2017-10-13T10:10:28.418Z,13530
2017-10-13T10:10:58.419Z,13618
2017-10-13T10:11:28.490Z,13423
2017-10-13T10:11:58.524Z,13508
2017-10-13T10:12:28.512Z,14010
2017-10-13T10:12:58.614Z,15030
2017-10-13T10:13:28.616Z,15212
2017-10-13T10:13:58.650Z,16895
2017-10-13T10:14:28.661Z,19198
2017-10-13T10:14:58.701Z,17265
2017-10-13T10:15:28.709Z,24397
2017-10-13T10:15:58.752Z,21107
2017-10-13T10:16:28.769Z,16958
2017-10-13T10:16:58.830Z,19633
2017-10-13T10:17:28.817Z,20385
2017-10-13T10:17:58.928Z,16837
2017-10-13T10:18:28.924Z,17590
2017-10-13T10:18:58.955Z,16620
2017-10-13T10:19:28.948Z,20377
2017-10-13T10:19:58.985Z,22115
2017-10-13T10:20:29.009Z,17285
2017-10-13T10:20:59.029Z,17010
2017-10-13T10:21:29.121Z,14248
2017-10-13T10:21:59.193Z,13892
2017-10-13T10:22:29.160Z,14092
2017-10-13T10:22:59.245Z,14780
2017-10-13T10:23:29.263Z,18480
2017-10-13T10:23:59.276Z,19380
2017-10-13T10:24:29.307Z,16423
2017-10-13T10:24:59.331Z,13643
2017-10-13T10:25:29.323Z,13545
2017-10-13T10:25:59.388Z,12785
2017-10-13T10:26:29.409Z,14128
2017-10-13T10:26:59.435Z,11570
2017-10-13T10:27:29.443Z,12547
2017-10-13T10:27:59.607Z,14890
2017-10-13T10:28:29.508Z,14173
2017-10-13T10:28:59.549Z,12767
2017-10-13T10:29:29.544Z,13305
2017-10-13T10:29:59.617Z,9947
2017-10-13T10:30:29.644Z,10502
2017-10-13T10:30:59.648Z,9827
2017-10-13T10:31:29.662Z,10067
2017-10-13T10:31:59.703Z,10643
2017-10-13T10:32:29.751Z,10883
2017-10-13T10:32:59.824Z,11520
2017-10-13T10:33:29.794Z,12128
2017-10-13T10:33:59.832Z,11710
2017-10-13T10:34:29.880Z,18493
2017-10-13T10:34:59.915Z,18532
2017-10-13T10:35:29.915Z,13375
2017-10-13T10:35:59.934Z,13808
2017-10-13T10:36:29.960Z,15825
2017-10-13T10:36:59.999Z,30025
2017-10-13T10:37:30.039Z,29085
2017-10-13T10:38:00.143Z,28427
2017-10-13T10:38:30.158Z,28945
2017-10-13T10:39:00.153Z,28768
2017-10-13T10:39:30.224Z,28277
2017-10-13T10:40:00.675Z,27250
2017-10-13T10:40:30.298Z,26107
2017-10-13T10:41:00.779Z,26885
2017-10-13T10:41:30.354Z,25815
2017-10-13T10:42:00.619Z,29735
2017-10-13T10:42:30.473Z,31120
2017-10-13T10:43:00.754Z,30915
2017-10-13T10:43:30.491Z,22405
2017-10-13T10:44:00.877Z,26482
2017-10-13T10:44:30.539Z,32180
2017-10-13T10:45:00.764Z,27743
2017-10-13T10:45:30.672Z,37913
2017-10-13T10:46:00.802Z,19322
2017-10-13T10:46:30.683Z,32375
2017-10-13T10:47:00.878Z,31515
2017-10-13T10:47:30.721Z,31507
2017-10-13T10:48:01.008Z,15698
2017-10-13T10:48:30.929Z,15442
2017-10-13T10:49:00.980Z,15053
2017-10-13T10:49:30.988Z,15265
2017-10-13T10:50:01.021Z,14845
2017-10-13T10:50:31.064Z,15390
2017-10-13T10:51:01.103Z,20297
2017-10-13T10:51:31.132Z,17807
2017-10-13T10:52:01.148Z,15245
2017-10-13T10:52:31.172Z,15088
2017-10-13T10:53:01.312Z,14750
2017-10-13T10:53:31.287Z,14865
2017-10-13T10:54:01.274Z,15032
2017-10-13T10:54:31.299Z,27155
2017-10-13T10:55:01.328Z,16180
2017-10-13T10:55:31.352Z,32115
2017-10-13T10:56:01.384Z,23325
2017-10-13T10:56:31.425Z,17285
2017-10-13T10:57:01.510Z,17083
2017-10-13T10:57:31.514Z,20423
2017-10-13T10:58:03.267Z,29190
2017-10-13T10:58:31.607Z,18375
2017-10-13T10:59:01.630Z,18983
2017-10-13T10:59:31.636Z,22230
2017-10-13T11:00:01.702Z,28468
2017-10-13T11:00:31.667Z,28455
2017-10-13T11:01:01.716Z,18705
2017-10-13T11:01:31.796Z,18527
2017-10-13T11:02:01.808Z,16177
2017-10-13T11:02:31.839Z,16337
2017-10-13T11:03:01.913Z,15808
2017-10-13T11:03:32.199Z,15780
2017-10-13T11:04:01.991Z,14653
2017-10-13T11:04:31.990Z,14720
2017-10-13T11:05:02.050Z,14075
2017-10-13T11:05:32.023Z,20820
2017-10-13T11:06:02.081Z,15347
2017-10-13T11:06:32.132Z,13700
2017-10-13T11:07:02.129Z,11873
2017-10-13T11:07:32.158Z,10730
2017-10-13T11:08:02.237Z,10135
2017-10-13T11:08:32.360Z,9950
2017-10-13T11:09:02.261Z,10258
2017-10-13T11:09:32.285Z,10858
2017-10-13T11:10:02.378Z,11490
2017-10-13T11:10:32.377Z,11782
2017-10-13T11:11:02.378Z,11797
2017-10-13T11:11:32.442Z,11870
2017-10-13T11:12:02.430Z,12193
2017-10-13T11:12:32.539Z,11743
2017-10-13T11:13:02.517Z,11635
2017-10-13T11:13:32.585Z,11788
2017-10-13T11:14:02.618Z,11608
2017-10-13T11:14:32.572Z,11630
2017-10-13T11:15:02.666Z,11395
2017-10-13T11:15:32.633Z,11048
2017-10-13T11:16:02.664Z,10193
2017-10-13T11:16:32.707Z,9150
2017-10-13T11:17:02.763Z,8552
2017-10-13T11:17:32.777Z,8578
2017-10-13T11:18:02.824Z,9592
2017-10-13T11:18:32.875Z,11500
2017-10-13T11:19:02.855Z,9935
2017-10-13T11:19:32.879Z,9570
2017-10-13T11:20:02.914Z,8657
2017-10-13T11:20:32.943Z,8233
2017-10-13T11:21:02.982Z,8220
2017-10-13T11:21:33.007Z,8477
2017-10-13T11:22:03.050Z,8815
2017-10-13T11:22:33.135Z,8880
2017-10-13T11:23:03.097Z,8663
2017-10-13T11:23:33.195Z,8710
2017-10-13T11:24:03.168Z,8162
2017-10-13T11:24:33.218Z,8145
2017-10-13T11:25:03.274Z,8770
2017-10-13T11:25:33.262Z,9575
2017-10-13T11:26:03.295Z,10315
2017-10-13T11:27:03.381Z,10650
2017-10-13T11:27:33.459Z,11200
2017-10-13T11:28:03.415Z,12268
2017-10-13T11:28:33.554Z,13072
2017-10-13T11:29:03.483Z,13252
2017-10-13T11:29:33.583Z,13015
2017-10-13T11:30:03.561Z,12750
2017-10-13T11:30:33.601Z,12868
2017-10-13T11:31:03.649Z,13247
2017-10-13T11:31:33.694Z,20548
2017-10-13T11:32:03.687Z,13605
2017-10-13T11:32:33.727Z,13678
2017-10-13T11:33:03.811Z,13438
2017-10-13T11:33:33.900Z,13340
2017-10-13T11:34:03.812Z,14700
2017-10-13T11:34:33.847Z,13423
2017-10-13T11:35:03.871Z,13690
2017-10-13T11:35:33.903Z,13650
2017-10-13T11:36:03.932Z,14480
2017-10-13T11:36:33.954Z,30210
2017-10-13T11:37:03.978Z,29375
2017-10-13T11:37:34.042Z,28845
2017-10-13T11:38:04.033Z,14863
2017-10-13T11:38:34.117Z,15650
2017-10-13T11:39:04.116Z,32745
2017-10-13T11:39:34.130Z,33940
2017-10-13T11:40:04.168Z,20255
2017-10-13T11:40:34.215Z,16907
2017-10-13T11:41:04.225Z,16022
2017-10-13T11:41:34.262Z,31858
2017-10-13T11:42:04.287Z,24890
2017-10-13T11:42:34.343Z,30628
2017-10-13T11:43:04.352Z,28160
2017-10-13T11:43:34.546Z,32865
2017-10-13T11:44:04.425Z,28545
2017-10-13T11:44:34.464Z,26912
2017-10-13T11:45:04.527Z,19585
2017-10-13T11:45:34.507Z,25890
2017-10-13T11:46:04.607Z,18572
2017-10-13T11:46:34.607Z,30983
2017-10-13T11:47:04.674Z,30485
2017-10-13T11:47:34.696Z,19553
2017-10-13T11:48:04.720Z,26593
2017-10-13T11:48:34.799Z,19870
2017-10-13T11:49:04.805Z,31280
2017-10-13T11:49:34.794Z,30607
2017-10-13T11:50:04.859Z,30832
2017-10-13T11:50:34.855Z,30632
2017-10-13T11:51:04.930Z,29365
2017-10-13T11:51:34.915Z,21152
2017-10-13T11:52:05.012Z,26945
2017-10-13T11:52:35.005Z,28880
2017-10-13T11:53:05.045Z,28822
2017-10-13T11:53:35.112Z,26720
2017-10-13T11:54:05.109Z,27140
2017-10-13T11:54:35.121Z,26587
2017-10-13T11:55:05.165Z,16768
2017-10-13T11:55:35.147Z,27422
2017-10-13T11:56:05.230Z,29252
2017-10-13T11:56:35.257Z,28382
2017-10-13T11:57:05.292Z,26413
2017-10-13T11:57:35.302Z,24272
2017-10-13T11:58:05.345Z,13127
2017-10-13T11:58:35.533Z,13735
2017-10-13T11:59:05.436Z,25425